createdAt,value
2022-11-03T00:00:16.561Z,1013.72
2022-11-03T00:01:16.642Z,1013.73
2022-11-03T00:02:16.675Z,1013.74
2022-11-03T00:03:16.534Z,1013.74
2022-11-03T00:04:16.509Z,1013.72
2022-11-03T00:05:16.490Z,1013.71
2022-11-03T00:06:16.484Z,1013.63
2022-11-03T00:07:16.492Z,1013.60
2022-11-03T00:08:16.454Z,1013.60
2022-11-03T00:09:16.442Z,1013.60
2022-11-03T00:10:16.421Z,1013.57
2022-11-03T00:11:16.418Z,1013.61
2022-11-03T00:12:16.421Z,1013.58
2022-11-03T00:13:16.390Z,1013.58
2022-11-03T00:14:16.373Z,1013.54
2022-11-03T00:15:16.364Z,1013.53
2022-11-03T00:16:16.343Z,1013.52
2022-11-03T00:17:16.352Z,1013.49
2022-11-03T00:18:16.322Z,1013.52
2022-11-03T00:19:16.358Z,1013.53
2022-11-03T00:20:16.311Z,1013.53
2022-11-03T00:21:16.281Z,1013.52
2022-11-03T00:22:16.274Z,1013.53
2022-11-03T00:23:16.263Z,1013.53
2022-11-03T00:24:16.264Z,1013.50
2022-11-03T00:25:16.267Z,1013.51
2022-11-03T00:26:16.390Z,1013.50
2022-11-03T00:27:16.244Z,1013.46
2022-11-03T00:28:16.196Z,1013.42
2022-11-03T00:29:16.174Z,1013.53
2022-11-03T00:30:16.155Z,1013.53
2022-11-03T00:31:16.146Z,1013.49
2022-11-03T00:32:16.147Z,1013.46
2022-11-03T00:33:16.123Z,1013.41
2022-11-03T00:34:16.109Z,1013.39
2022-11-03T00:35:16.092Z,1013.38
2022-11-03T00:36:16.082Z,1013.32
2022-11-03T00:37:16.098Z,1013.37
2022-11-03T00:38:16.067Z,1013.31
2022-11-03T00:39:16.086Z,1013.37
2022-11-03T00:40:16.061Z,1013.33
2022-11-03T00:41:16.074Z,1013.29
2022-11-03T00:42:16.056Z,1013.27
2022-11-03T00:43:15.988Z,1013.25
2022-11-03T00:44:15.967Z,1013.29
2022-11-03T00:45:15.964Z,1013.30
2022-11-03T00:46:15.941Z,1013.25
2022-11-03T00:47:18.887Z,1013.27
2022-11-03T00:48:16.909Z,1013.29
2022-11-03T00:49:15.917Z,1013.22
2022-11-03T00:50:15.887Z,1013.25
2022-11-03T00:51:15.968Z,1013.23
2022-11-03T00:52:15.869Z,1013.20
2022-11-03T00:53:15.851Z,1013.21
2022-11-03T00:54:15.827Z,1013.20
2022-11-03T00:55:15.888Z,1013.19
2022-11-03T00:56:15.850Z,1013.14
2022-11-03T00:57:15.808Z,1013.17
2022-11-03T00:58:15.780Z,1013.17
2022-11-03T00:59:15.780Z,1013.12
2022-11-03T01:00:15.748Z,1013.19
2022-11-03T01:01:15.834Z,1013.15
2022-11-03T01:02:15.857Z,1013.16
2022-11-03T01:03:15.708Z,1013.14
2022-11-03T01:04:15.701Z,1013.17
2022-11-03T01:05:15.692Z,1013.14
2022-11-03T01:06:15.669Z,1013.13
2022-11-03T01:07:15.678Z,1013.14
2022-11-03T01:08:15.640Z,1013.13
2022-11-03T01:09:15.640Z,1013.16
2022-11-03T01:10:15.609Z,1013.13
2022-11-03T01:11:15.610Z,1013.13
2022-11-03T01:12:15.600Z,1013.15
2022-11-03T01:13:15.579Z,1013.16
2022-11-03T01:14:15.560Z,1013.17
2022-11-03T01:15:15.551Z,1013.12
2022-11-03T01:16:15.532Z,1013.18
2022-11-03T01:17:15.547Z,1013.15
2022-11-03T01:18:15.501Z,1013.14
2022-11-03T01:19:15.501Z,1013.12
2022-11-03T01:20:15.482Z,1013.12
2022-11-03T01:21:15.471Z,1013.08
2022-11-03T01:22:15.462Z,1013.07
2022-11-03T01:23:15.451Z,1013.05
2022-11-03T01:24:15.425Z,1013.04
2022-11-03T01:25:15.422Z,1013.02
2022-11-03T01:26:15.400Z,1012.99
2022-11-03T01:27:15.406Z,1013.01
2022-11-03T01:28:15.371Z,1012.94
2022-11-03T01:29:15.370Z,1012.95
2022-11-03T01:30:15.342Z,1012.94
2022-11-03T01:31:15.332Z,1012.93
2022-11-03T01:32:15.338Z,1012.88
2022-11-03T01:33:15.305Z,1012.87
2022-11-03T01:34:15.284Z,1012.89
2022-11-03T01:35:15.283Z,1012.87
2022-11-03T01:36:15.263Z,1012.85
2022-11-03T01:37:15.274Z,1012.83
2022-11-03T01:38:15.236Z,1012.80
2022-11-03T01:39:15.234Z,1012.78
2022-11-03T01:40:15.215Z,1012.76
2022-11-03T01:41:15.197Z,1012.74
2022-11-03T01:42:15.244Z,1012.74
2022-11-03T01:43:15.164Z,1012.78
2022-11-03T01:44:15.165Z,1012.75
2022-11-03T01:45:15.135Z,1012.71
2022-11-03T01:46:15.133Z,1012.68
2022-11-03T01:47:15.132Z,1012.65
2022-11-03T01:48:15.105Z,1012.68
2022-11-03T01:49:15.110Z,1012.65
2022-11-03T01:50:15.075Z,1012.63
2022-11-03T01:51:15.055Z,1012.58
2022-11-03T01:52:15.067Z,1012.53
2022-11-03T01:53:15.038Z,1012.46
2022-11-03T01:54:15.026Z,1012.50
2022-11-03T01:55:15.010Z,1012.46
2022-11-03T01:56:14.999Z,1012.47
2022-11-03T01:57:14.994Z,1012.44
2022-11-03T01:58:14.969Z,1012.44
2022-11-03T01:59:14.993Z,1012.42
2022-11-03T02:00:14.937Z,1012.37
2022-11-03T02:01:14.986Z,1012.36
2022-11-03T02:02:15.004Z,1012.34
2022-11-03T02:03:14.899Z,1012.31
2022-11-03T02:04:14.887Z,1012.27
2022-11-03T02:05:14.867Z,1012.25
2022-11-03T02:06:14.858Z,1012.24
2022-11-03T02:07:14.858Z,1012.23
2022-11-03T02:08:14.841Z,1012.27
2022-11-03T02:09:14.817Z,1012.26
2022-11-03T02:10:14.806Z,1012.25
2022-11-03T02:11:14.791Z,1012.27
2022-11-03T02:12:14.799Z,1012.21
2022-11-03T02:13:14.771Z,1012.22
2022-11-03T02:14:14.764Z,1012.26
2022-11-03T02:15:14.738Z,1012.24
2022-11-03T02:16:14.719Z,1012.23
2022-11-03T02:17:14.727Z,1012.22
2022-11-03T02:18:14.699Z,1012.16
2022-11-03T02:19:14.691Z,1012.18
2022-11-03T02:20:14.669Z,1012.17
2022-11-03T02:21:14.671Z,1012.12
2022-11-03T02:22:14.660Z,1012.13
2022-11-03T02:23:14.629Z,1012.09
2022-11-03T02:24:14.621Z,1012.09
2022-11-03T02:25:14.609Z,1012.07
2022-11-03T02:26:14.591Z,1012.07
2022-11-03T02:27:14.588Z,1011.96
2022-11-03T02:28:14.560Z,1012.00
2022-11-03T02:29:14.550Z,1012.02
2022-11-03T02:30:14.541Z,1011.96
2022-11-03T02:31:14.515Z,1011.99
2022-11-03T02:32:14.523Z,1011.92
2022-11-03T02:33:14.492Z,1011.91
2022-11-03T02:34:14.481Z,1011.86
2022-11-03T02:35:14.463Z,1011.86
2022-11-03T02:36:14.473Z,1011.86
2022-11-03T02:37:14.523Z,1011.87
2022-11-03T02:38:14.423Z,1011.82
2022-11-03T02:39:14.421Z,1011.83
2022-11-03T02:40:14.401Z,1011.80
2022-11-03T02:41:14.396Z,1011.75
2022-11-03T02:42:14.384Z,1011.72
2022-11-03T02:43:14.352Z,1011.72
2022-11-03T02:44:14.343Z,1011.69
2022-11-03T02:45:17.323Z,1011.67
2022-11-03T02:46:14.322Z,1011.68
2022-11-03T02:47:14.314Z,1011.66
2022-11-03T02:48:14.301Z,1011.62
2022-11-03T02:49:14.341Z,1011.61
2022-11-03T02:50:14.263Z,1011.62
2022-11-03T02:51:14.244Z,1011.59
2022-11-03T02:52:14.253Z,1011.57
2022-11-03T02:53:14.223Z,1011.54
2022-11-03T02:54:14.213Z,1011.53
2022-11-03T02:55:14.195Z,1011.53
2022-11-03T02:56:14.192Z,1011.52
2022-11-03T02:57:14.184Z,1011.50
2022-11-03T02:58:14.155Z,1011.47
2022-11-03T02:59:14.151Z,1011.49
2022-11-03T03:00:14.147Z,1011.43
2022-11-03T03:01:14.234Z,1011.45
2022-11-03T03:02:14.244Z,1011.37
2022-11-03T03:03:14.095Z,1011.38
2022-11-03T03:04:14.075Z,1011.40
2022-11-03T03:05:14.080Z,1011.37
2022-11-03T03:06:14.088Z,1011.37
2022-11-03T03:07:14.118Z,1011.33
2022-11-03T03:08:14.026Z,1011.37
2022-11-03T03:09:14.015Z,1011.36
2022-11-03T03:10:14.058Z,1011.37
2022-11-03T03:11:13.976Z,1011.35
2022-11-03T03:12:13.986Z,1011.39
2022-11-03T03:13:13.955Z,1011.38
2022-11-03T03:14:13.947Z,1011.34
2022-11-03T03:15:13.927Z,1011.31
2022-11-03T03:16:13.917Z,1011.28
2022-11-03T03:17:13.920Z,1011.27
2022-11-03T03:18:13.887Z,1011.27
2022-11-03T03:19:13.878Z,1011.25
2022-11-03T03:20:13.859Z,1011.26
2022-11-03T03:21:13.838Z,1011.25
2022-11-03T03:22:13.857Z,1011.22
2022-11-03T03:23:14.232Z,1011.14
2022-11-03T03:24:13.809Z,1011.15
2022-11-03T03:25:13.788Z,1011.17
2022-11-03T03:26:13.777Z,1011.10
2022-11-03T03:27:13.778Z,1011.10
2022-11-03T03:28:13.749Z,1011.10
2022-11-03T03:29:13.741Z,1011.10
2022-11-03T03:30:13.740Z,1011.07
2022-11-03T03:31:13.709Z,1011.09
2022-11-03T03:32:13.719Z,1011.06
2022-11-03T03:33:13.763Z,1011.06
2022-11-03T03:34:33.381Z,1011.05
2022-11-03T03:35:14.658Z,1011.05
2022-11-03T03:36:13.650Z,1011.06
2022-11-03T03:37:13.660Z,1011.10
2022-11-03T03:38:13.621Z,1011.10
2022-11-03T03:39:13.609Z,1011.12
2022-11-03T03:40:13.591Z,1011.10
2022-11-03T03:41:13.573Z,1011.07
2022-11-03T03:42:13.581Z,1011.04
2022-11-03T03:43:13.550Z,1011.03
2022-11-03T03:44:13.550Z,1011.02
2022-11-03T03:45:13.522Z,1010.99
2022-11-03T03:46:13.522Z,1011.03
2022-11-03T03:47:13.513Z,1011.01
2022-11-03T03:48:13.491Z,1010.93
2022-11-03T03:49:13.475Z,1010.94
2022-11-03T03:50:13.462Z,1010.94
2022-11-03T03:51:13.441Z,1010.89
2022-11-03T03:52:13.459Z,1010.94
2022-11-03T03:53:13.414Z,1010.89
2022-11-03T03:54:13.413Z,1010.91
2022-11-03T03:55:13.420Z,1010.85
2022-11-03T03:56:13.383Z,1010.91
2022-11-03T03:57:13.373Z,1010.88
2022-11-03T03:58:13.362Z,1010.84
2022-11-03T03:59:13.354Z,1010.80
2022-11-03T04:00:13.332Z,1010.82
2022-11-03T04:01:13.435Z,1010.83
2022-11-03T04:02:13.449Z,1010.77
2022-11-03T04:03:13.281Z,1010.79
2022-11-03T04:04:13.264Z,1010.77
2022-11-03T04:05:13.262Z,1010.73
2022-11-03T04:06:13.252Z,1010.72
2022-11-03T04:07:13.256Z,1010.72
2022-11-03T04:08:13.214Z,1010.73
2022-11-03T04:09:13.220Z,1010.77
2022-11-03T04:10:13.196Z,1010.77
2022-11-03T04:11:13.176Z,1010.74
2022-11-03T04:12:13.183Z,1010.76
2022-11-03T04:13:13.147Z,1010.74
2022-11-03T04:14:13.143Z,1010.71
2022-11-03T04:15:13.163Z,1010.73
2022-11-03T04:16:13.124Z,1010.71
2022-11-03T04:17:13.115Z,1010.69
2022-11-03T04:18:13.087Z,1010.74
2022-11-03T04:19:13.076Z,1010.74
2022-11-03T04:20:13.065Z,1010.78
2022-11-03T04:21:13.053Z,1010.70
2022-11-03T04:22:13.046Z,1010.68
2022-11-03T04:23:13.018Z,1010.72
2022-11-03T04:24:12.996Z,1010.67
2022-11-03T04:25:12.997Z,1010.67
2022-11-03T04:26:12.978Z,1010.71
2022-11-03T04:27:12.978Z,1010.68
2022-11-03T04:28:12.946Z,1010.64
2022-11-03T04:29:12.938Z,1010.64
2022-11-03T04:30:12.928Z,1010.68
2022-11-03T04:31:12.907Z,1010.60
2022-11-03T04:32:12.917Z,1010.62
2022-11-03T04:33:12.881Z,1010.60
2022-11-03T04:34:12.878Z,1010.59
2022-11-03T04:35:12.852Z,1010.57
2022-11-03T04:36:12.839Z,1010.58
2022-11-03T04:37:12.838Z,1010.57
2022-11-03T04:38:12.820Z,1010.56
2022-11-03T04:39:12.809Z,1010.54
2022-11-03T04:40:12.798Z,1010.55
2022-11-03T04:41:12.774Z,1010.49
2022-11-03T04:42:12.780Z,1010.53
2022-11-03T04:43:12.778Z,1010.45
2022-11-03T04:44:12.730Z,1010.44
2022-11-03T04:45:12.717Z,1010.42
2022-11-03T04:46:12.711Z,1010.40
2022-11-03T04:47:12.699Z,1010.44
2022-11-03T04:48:12.687Z,1010.35
2022-11-03T04:49:12.687Z,1010.38
2022-11-03T04:50:12.654Z,1010.34
2022-11-03T04:51:12.639Z,1010.26
2022-11-03T04:52:12.641Z,1010.33
2022-11-03T04:53:12.610Z,1010.29
2022-11-03T04:54:12.600Z,1010.28
2022-11-03T04:55:12.581Z,1010.35
2022-11-03T04:56:12.580Z,1010.30
2022-11-03T04:57:12.570Z,1010.27
2022-11-03T04:58:12.549Z,1010.24
2022-11-03T04:59:12.539Z,1010.25
2022-11-03T05:00:12.532Z,1010.25
2022-11-03T05:01:12.557Z,1010.24
2022-11-03T05:02:12.535Z,1010.23
2022-11-03T05:03:12.587Z,1010.20
2022-11-03T05:04:12.462Z,1010.17
2022-11-03T05:05:12.451Z,1010.23
2022-11-03T05:06:12.455Z,1010.18
2022-11-03T05:07:12.441Z,1010.14
2022-11-03T05:08:12.431Z,1010.08
2022-11-03T05:09:12.401Z,1010.09
2022-11-03T05:10:12.382Z,1010.06
2022-11-03T05:11:12.368Z,1010.10
2022-11-03T05:12:12.375Z,1010.06
2022-11-03T05:13:12.343Z,1010.13
2022-11-03T05:14:12.331Z,1010.07
2022-11-03T05:15:12.313Z,1010.03
2022-11-03T05:16:12.303Z,1009.99
2022-11-03T05:17:12.313Z,1009.98
2022-11-03T05:18:12.285Z,1009.95
2022-11-03T05:19:12.263Z,1009.91
2022-11-03T05:20:12.255Z,1009.91
2022-11-03T05:21:12.257Z,1009.87
2022-11-03T05:22:12.247Z,1009.83
2022-11-03T05:23:12.224Z,1009.76
2022-11-03T05:24:12.278Z,1009.86
2022-11-03T05:25:12.184Z,1009.84
2022-11-03T05:26:12.166Z,1009.75
2022-11-03T05:27:12.172Z,1009.77
2022-11-03T05:28:12.146Z,1009.79
2022-11-03T05:29:12.125Z,1009.76
2022-11-03T05:30:12.115Z,1009.72
2022-11-03T05:31:12.097Z,1009.72
2022-11-03T05:32:12.107Z,1009.74
2022-11-03T05:33:12.084Z,1009.70
2022-11-03T05:34:12.080Z,1009.68
2022-11-03T05:35:12.046Z,1009.70
2022-11-03T05:36:12.103Z,1009.71
2022-11-03T05:37:12.072Z,1009.69
2022-11-03T05:38:12.006Z,1009.69
2022-11-03T05:39:11.996Z,1009.71
2022-11-03T05:40:11.986Z,1009.71
2022-11-03T05:41:12.001Z,1009.66
2022-11-03T05:42:11.985Z,1009.67
2022-11-03T05:43:12.363Z,1009.67
2022-11-03T05:44:11.927Z,1009.61
2022-11-03T05:45:11.917Z,1009.58
2022-11-03T05:46:11.901Z,1009.60
2022-11-03T05:47:11.898Z,1009.48
2022-11-03T05:48:11.876Z,1009.54
2022-11-03T05:49:11.857Z,1009.45
2022-11-03T05:50:11.847Z,1009.53
2022-11-03T05:51:11.829Z,1009.52
2022-11-03T05:52:11.836Z,1009.51
2022-11-03T05:53:11.799Z,1009.52
2022-11-03T05:54:16.948Z,1009.49
2022-11-03T05:55:12.770Z,1009.49
2022-11-03T05:56:11.758Z,1009.50
2022-11-03T05:57:11.771Z,1009.43
2022-11-03T05:58:11.769Z,1009.45
2022-11-03T05:59:11.728Z,1009.48
2022-11-03T06:01:21.581Z,1009.46
2022-11-03T06:02:21.607Z,1009.48
2022-11-03T06:03:21.496Z,1009.46
2022-11-03T06:04:21.477Z,1009.39
2022-11-03T06:05:21.459Z,1009.36
2022-11-03T06:06:21.446Z,1009.32
2022-11-03T06:07:21.456Z,1009.32
2022-11-03T06:08:21.493Z,1009.37
2022-11-03T06:09:21.406Z,1009.45
2022-11-03T06:10:21.397Z,1009.38
2022-11-03T06:11:21.376Z,1009.38
2022-11-03T06:12:21.385Z,1009.38
2022-11-03T06:13:21.355Z,1009.35
2022-11-03T06:14:24.003Z,1009.36
2022-11-03T06:15:21.326Z,1009.33
2022-11-03T06:16:21.317Z,1009.37
2022-11-03T06:17:21.317Z,1009.29
2022-11-03T06:18:21.286Z,1009.29
2022-11-03T06:19:21.268Z,1009.26
2022-11-03T06:20:21.260Z,1009.31
2022-11-03T06:21:21.240Z,1009.28
2022-11-03T06:22:21.237Z,1009.24
2022-11-03T06:23:21.218Z,1009.25
2022-11-03T06:24:21.208Z,1009.26
2022-11-03T06:25:21.189Z,1009.18
2022-11-03T06:26:21.178Z,1009.13
2022-11-03T06:27:21.179Z,1009.18
2022-11-03T06:28:21.149Z,1009.12
2022-11-03T06:29:21.129Z,1009.18
2022-11-03T06:30:21.134Z,1009.15
2022-11-03T06:31:23.152Z,1009.11
2022-11-03T06:32:21.117Z,1009.18
2022-11-03T06:33:21.079Z,1009.08
2022-11-03T06:34:21.070Z,1009.10
2022-11-03T06:35:21.051Z,1009.13
2022-11-03T06:36:21.040Z,1009.08
2022-11-03T06:37:21.041Z,1009.09
2022-11-03T06:38:21.020Z,1009.08
2022-11-03T06:39:21.010Z,1009.10
2022-11-03T06:40:20.992Z,1009.09
2022-11-03T06:41:20.973Z,1009.10
2022-11-03T06:42:20.981Z,1009.02
2022-11-03T06:43:20.950Z,1009.05
2022-11-03T06:44:20.934Z,1008.97
2022-11-03T06:45:20.912Z,1008.97
2022-11-03T06:46:20.912Z,1009.01
2022-11-03T06:47:20.901Z,1008.97
2022-11-03T06:48:20.881Z,1008.96
2022-11-03T06:49:20.861Z,1008.95
2022-11-03T06:50:20.863Z,1008.93
2022-11-03T06:51:20.841Z,1008.96
2022-11-03T06:52:20.850Z,1008.93
2022-11-03T06:53:20.818Z,1008.87
2022-11-03T06:54:20.802Z,1008.90
2022-11-03T06:55:20.793Z,1008.86
2022-11-03T06:56:20.831Z,1008.86
2022-11-03T06:57:20.860Z,1008.80
2022-11-03T06:58:20.766Z,1008.79
2022-11-03T06:59:20.736Z,1008.79
2022-11-03T07:00:33.588Z,1008.76
2022-11-03T07:01:21.801Z,1008.74
2022-11-03T07:02:20.887Z,1008.66
2022-11-03T07:03:20.673Z,1008.70
2022-11-03T07:04:20.685Z,1008.70
2022-11-03T07:05:20.659Z,1008.68
2022-11-03T07:06:20.636Z,1008.66
2022-11-03T07:07:20.651Z,1008.67
2022-11-03T07:08:20.616Z,1008.67
2022-11-03T07:09:20.595Z,1008.69
2022-11-03T07:10:20.584Z,1008.69
2022-11-03T07:11:20.585Z,1008.71
2022-11-03T07:12:20.575Z,1008.75
2022-11-03T07:13:20.545Z,1008.69
2022-11-03T07:14:20.548Z,1008.66
2022-11-03T07:15:20.526Z,1008.65
2022-11-03T07:16:20.513Z,1008.58
2022-11-03T07:17:20.514Z,1008.56
2022-11-03T07:18:20.497Z,1008.63
2022-11-03T07:19:20.467Z,1008.68
2022-11-03T07:20:20.456Z,1008.63
2022-11-03T07:21:20.436Z,1008.67
2022-11-03T07:22:20.446Z,1008.68
2022-11-03T07:23:20.406Z,1008.66
2022-11-03T07:24:20.408Z,1008.68
2022-11-03T07:25:20.537Z,1008.60
2022-11-03T07:26:20.377Z,1008.60
2022-11-03T07:27:20.376Z,1008.60
2022-11-03T07:28:20.357Z,1008.56
2022-11-03T07:29:20.336Z,1008.56
2022-11-03T07:30:20.340Z,1008.46
2022-11-03T07:31:20.306Z,1008.48
2022-11-03T07:32:20.332Z,1008.42
2022-11-03T07:33:20.288Z,1008.46
2022-11-03T07:34:20.268Z,1008.47
2022-11-03T07:35:20.248Z,1008.48
2022-11-03T07:36:20.246Z,1008.47
2022-11-03T07:37:20.246Z,1008.42
2022-11-03T07:38:20.219Z,1008.44
2022-11-03T07:39:20.206Z,1008.45
2022-11-03T07:40:20.193Z,1008.39
2022-11-03T07:41:20.179Z,1008.40
2022-11-03T07:42:20.181Z,1008.36
2022-11-03T07:43:20.152Z,1008.33
2022-11-03T07:44:20.130Z,1008.31
2022-11-03T07:45:20.122Z,1008.35
2022-11-03T07:46:20.136Z,1008.33
2022-11-03T07:47:20.098Z,1008.32
2022-11-03T07:48:20.085Z,1008.32
2022-11-03T07:49:20.070Z,1008.35
2022-11-03T07:50:20.060Z,1008.37
2022-11-03T07:51:20.135Z,1008.33
2022-11-03T07:52:20.042Z,1008.28
2022-11-03T07:53:25.681Z,1008.30
2022-11-03T07:54:21.008Z,1008.29
2022-11-03T07:55:19.995Z,1008.20
2022-11-03T07:56:20.112Z,1008.19
2022-11-03T07:57:19.960Z,1008.15
2022-11-03T07:58:19.951Z,1008.15
2022-11-03T07:59:19.985Z,1008.15
2022-11-03T08:00:19.933Z,1008.10
2022-11-03T08:01:19.955Z,1008.13
2022-11-03T08:02:19.964Z,1008.12
2022-11-03T08:03:20.029Z,1008.12
2022-11-03T08:04:19.872Z,1008.14
2022-11-03T08:06:20.101Z,1008.10
2022-11-03T08:07:19.823Z,1008.10
2022-11-03T08:08:19.813Z,1008.15
2022-11-03T08:09:19.794Z,1008.12
2022-11-03T08:10:19.791Z,1008.08
2022-11-03T08:11:21.976Z,1008.08
2022-11-03T08:12:19.764Z,1008.02
2022-11-03T08:13:19.746Z,1008.05
2022-11-03T08:14:19.736Z,1008.03
2022-11-03T08:15:19.723Z,1008.02
2022-11-03T08:16:19.727Z,1007.98
2022-11-03T08:17:19.684Z,1008.01
2022-11-03T08:18:19.686Z,1007.97
2022-11-03T08:19:19.664Z,1007.94
2022-11-03T08:20:19.655Z,1007.95
2022-11-03T08:21:19.673Z,1007.94
2022-11-03T08:22:19.628Z,1007.98
2022-11-03T08:23:25.625Z,1007.90
2022-11-03T08:24:20.606Z,1007.89
2022-11-03T08:25:19.587Z,1007.87
2022-11-03T08:26:19.598Z,1007.86
2022-11-03T08:27:19.556Z,1007.83
2022-11-03T08:28:19.547Z,1007.78
2022-11-03T08:29:19.538Z,1007.77
2022-11-03T08:30:19.530Z,1007.74
2022-11-03T08:31:19.523Z,1007.76
2022-11-03T08:32:19.495Z,1007.74
2022-11-03T08:33:19.536Z,1007.73
2022-11-03T08:34:19.468Z,1007.66
2022-11-03T08:35:19.459Z,1007.76
2022-11-03T08:36:19.438Z,1007.75
2022-11-03T08:37:19.439Z,1007.80
2022-11-03T08:38:19.417Z,1007.77
2022-11-03T08:39:19.398Z,1007.79
2022-11-03T08:40:19.389Z,1007.71
2022-11-03T08:41:19.367Z,1007.71
2022-11-03T08:42:19.379Z,1007.74
2022-11-03T08:43:19.347Z,1007.70
2022-11-03T08:44:19.339Z,1007.62
2022-11-03T08:45:19.318Z,1007.60
2022-11-03T08:46:19.318Z,1007.49
2022-11-03T08:47:19.310Z,1007.44
2022-11-03T08:48:19.281Z,1007.43
2022-11-03T08:49:19.261Z,1007.39
2022-11-03T08:50:19.257Z,1007.40
2022-11-03T08:51:19.242Z,1007.36
2022-11-03T08:52:19.240Z,1007.33
2022-11-03T08:53:19.221Z,1007.31
2022-11-03T08:54:19.203Z,1007.34
2022-11-03T08:55:19.193Z,1007.28
2022-11-03T08:56:22.102Z,1007.31
2022-11-03T08:57:19.183Z,1007.29
2022-11-03T08:58:19.141Z,1007.30
2022-11-03T08:59:19.142Z,1007.30
2022-11-03T09:00:19.122Z,1007.29
2022-11-03T09:01:19.239Z,1007.29
2022-11-03T09:02:19.153Z,1007.32
2022-11-03T09:03:19.212Z,1007.28
2022-11-03T09:04:19.073Z,1007.18
2022-11-03T09:05:19.063Z,1007.22
2022-11-03T09:06:19.049Z,1007.16
2022-11-03T09:07:19.283Z,1007.15
2022-11-03T09:10:22.135Z,1007.11
2022-11-03T09:11:18.978Z,1007.11
2022-11-03T09:12:18.972Z,1007.11
2022-11-03T09:13:18.954Z,1007.13
2022-11-03T09:14:18.934Z,1007.21
2022-11-03T09:15:18.923Z,1007.11
2022-11-03T09:16:18.906Z,1007.09
2022-11-03T09:17:18.915Z,1007.00
2022-11-03T09:18:18.883Z,1007.01
2022-11-03T09:19:18.866Z,1006.97
2022-11-03T09:20:18.856Z,1006.92
2022-11-03T09:21:18.844Z,1006.88
2022-11-03T09:22:18.845Z,1006.81
2022-11-03T09:23:18.815Z,1006.81
2022-11-03T09:24:18.795Z,1006.74
2022-11-03T09:25:18.787Z,1006.69
2022-11-03T09:26:18.765Z,1006.61
2022-11-03T09:27:18.776Z,1006.61
2022-11-03T09:28:18.745Z,1006.60
2022-11-03T09:29:18.735Z,1006.56
2022-11-03T09:30:18.718Z,1006.55
2022-11-03T09:31:18.705Z,1006.53
2022-11-03T09:32:23.009Z,1006.48
2022-11-03T09:33:18.684Z,1006.46
2022-11-03T09:34:18.665Z,1006.47
2022-11-03T09:35:18.666Z,1006.41
2022-11-03T09:36:18.637Z,1006.43
2022-11-03T09:37:18.638Z,1006.36
2022-11-03T09:38:18.608Z,1006.34
2022-11-03T09:39:18.598Z,1006.33
2022-11-03T09:40:18.578Z,1006.30
2022-11-03T09:41:26.556Z,1006.27
2022-11-03T09:42:19.577Z,1006.24
2022-11-03T09:43:18.552Z,1006.28
2022-11-03T09:44:18.529Z,1006.25
2022-11-03T09:45:18.522Z,1006.22
2022-11-03T09:46:18.499Z,1006.17
2022-11-03T09:47:18.508Z,1006.14
2022-11-03T09:48:18.479Z,1006.05
2022-11-03T09:49:18.471Z,1006.09
2022-11-03T09:50:18.449Z,1006.04
2022-11-03T09:51:18.440Z,1006.04
2022-11-03T09:52:19.383Z,1006.02
2022-11-03T09:53:18.415Z,1005.98
2022-11-03T09:54:18.412Z,1006.01
2022-11-03T09:55:18.403Z,1006.01
2022-11-03T09:56:18.377Z,1006.04
2022-11-03T09:57:18.370Z,1005.93
2022-11-03T09:58:18.342Z,1005.93
2022-11-03T09:59:18.331Z,1005.87
2022-11-03T10:00:18.337Z,1005.86
2022-11-03T10:01:18.423Z,1005.84
2022-11-03T10:02:18.392Z,1005.80
2022-11-03T10:03:18.289Z,1005.76
2022-11-03T10:04:18.262Z,1005.74
2022-11-03T10:05:18.298Z,1005.73
2022-11-03T10:06:18.234Z,1005.68
2022-11-03T10:07:18.243Z,1005.58
2022-11-03T10:08:21.489Z,1005.56
2022-11-03T10:09:18.206Z,1005.49
2022-11-03T10:10:18.183Z,1005.47
2022-11-03T10:11:18.174Z,1005.51
2022-11-03T10:12:18.183Z,1005.57
2022-11-03T10:13:18.144Z,1005.54
2022-11-03T10:14:18.125Z,1005.52
2022-11-03T10:15:18.133Z,1005.49
2022-11-03T10:16:18.106Z,1005.43
2022-11-03T10:17:18.104Z,1005.44
2022-11-03T10:18:18.076Z,1005.40
2022-11-03T10:19:18.083Z,1005.48
2022-11-03T10:20:18.103Z,1005.47
2022-11-03T10:21:18.035Z,1005.49
2022-11-03T10:22:18.035Z,1005.56
2022-11-03T10:23:18.016Z,1005.50
2022-11-03T10:24:17.998Z,1005.44
2022-11-03T10:25:17.988Z,1005.41
2022-11-03T10:26:17.973Z,1005.34
2022-11-03T10:27:17.977Z,1005.37
2022-11-03T10:28:17.947Z,1005.40
2022-11-03T10:30:17.935Z,1005.38
2022-11-03T10:31:17.909Z,1005.45
2022-11-03T10:32:17.904Z,1005.41
2022-11-03T10:33:17.885Z,1005.35
2022-11-03T10:34:17.858Z,1005.26
2022-11-03T10:35:17.860Z,1005.14
2022-11-03T10:36:17.838Z,1005.17
2022-11-03T10:37:17.843Z,1005.21
2022-11-03T10:38:17.817Z,1005.11
2022-11-03T10:39:17.806Z,1005.09
2022-11-03T10:40:46.831Z,1005.03
2022-11-03T10:41:18.778Z,1004.96
2022-11-03T10:42:17.779Z,1004.90
2022-11-03T10:43:17.750Z,1004.88
2022-11-03T10:44:17.730Z,1004.88
2022-11-03T10:45:17.734Z,1004.81
2022-11-03T10:46:36.573Z,1004.78
2022-11-03T10:47:18.714Z,1004.80
2022-11-03T10:48:17.681Z,1004.74
2022-11-03T10:49:17.670Z,1004.66
2022-11-03T10:50:17.651Z,1004.66
2022-11-03T10:51:17.644Z,1004.64
2022-11-03T10:52:17.642Z,1004.61
2022-11-03T10:53:17.640Z,1004.60
2022-11-03T10:54:17.605Z,1004.47
2022-11-03T10:55:20.617Z,1004.45
2022-11-03T10:56:18.573Z,1004.50
2022-11-03T10:57:17.582Z,1004.40
2022-11-03T10:58:17.543Z,1004.41
2022-11-03T10:59:17.533Z,1004.43
2022-11-03T11:00:17.514Z,1004.34
2022-11-03T11:01:17.622Z,1004.33
2022-11-03T11:02:17.598Z,1004.32
2022-11-03T11:03:20.648Z,1004.32
2022-11-03T11:04:17.541Z,1004.35
2022-11-03T11:05:17.454Z,1004.35
2022-11-03T11:06:17.437Z,1004.39
2022-11-03T11:07:17.443Z,1004.30
2022-11-03T11:08:17.476Z,1004.35
2022-11-03T11:09:17.404Z,1004.25
2022-11-03T11:10:17.386Z,1004.25
2022-11-03T11:11:17.375Z,1004.26
2022-11-03T11:12:17.376Z,1004.22
2022-11-03T11:13:17.346Z,1004.22
2022-11-03T11:14:17.327Z,1004.25
2022-11-03T11:15:17.316Z,1004.34
2022-11-03T11:16:17.307Z,1004.18
2022-11-03T11:17:17.310Z,1004.25
2022-11-03T11:18:17.302Z,1004.29
2022-11-03T11:19:17.267Z,1004.19
2022-11-03T11:20:17.254Z,1004.29
2022-11-03T11:21:17.248Z,1004.17
2022-11-03T11:22:17.247Z,1004.14
2022-11-03T11:23:17.216Z,1004.01
2022-11-03T11:24:17.199Z,1004.10
2022-11-03T11:25:17.190Z,1004.11
2022-11-03T11:26:17.176Z,1003.93
2022-11-03T11:27:17.179Z,1004.07
2022-11-03T11:28:17.148Z,1004.07
2022-11-03T11:29:17.139Z,1004.09
2022-11-03T11:30:17.119Z,1004.14
2022-11-03T11:31:17.120Z,1004.07
2022-11-03T11:32:17.110Z,1004.11
2022-11-03T11:33:17.087Z,1004.08
2022-11-03T11:34:17.091Z,1004.07
2022-11-03T11:35:17.059Z,1004.08
2022-11-03T11:36:17.059Z,1004.20
2022-11-03T11:37:17.041Z,1004.15
2022-11-03T11:38:17.012Z,1004.16
2022-11-03T11:39:17.001Z,1004.06
2022-11-03T11:40:16.984Z,1004.03
2022-11-03T11:41:16.986Z,1003.96
2022-11-03T11:42:17.037Z,1003.98
2022-11-03T11:43:16.949Z,1003.93
2022-11-03T11:44:16.934Z,1003.96
2022-11-03T11:45:16.924Z,1003.86
2022-11-03T11:46:16.913Z,1003.75
2022-11-03T11:47:16.924Z,1003.77
2022-11-03T11:48:18.946Z,1003.72
2022-11-03T11:49:16.864Z,1003.69
2022-11-03T11:50:16.854Z,1003.62
2022-11-03T11:51:16.845Z,1003.52
2022-11-03T11:52:19.266Z,1003.38
2022-11-03T11:53:16.824Z,1003.54
2022-11-03T11:54:18.147Z,1003.58
2022-11-03T11:55:16.805Z,1003.46
2022-11-03T11:56:16.782Z,1003.48
2022-11-03T11:57:16.785Z,1003.49
2022-11-03T11:58:16.745Z,1003.45
2022-11-03T11:59:21.438Z,1003.32
2022-11-03T12:00:17.728Z,1003.28
2022-11-03T12:01:23.778Z,1003.24
2022-11-03T12:02:16.720Z,1003.31
2022-11-03T12:03:16.733Z,1003.23
2022-11-03T12:05:16.670Z,1003.12
2022-11-03T12:06:16.656Z,1003.05
2022-11-03T12:07:16.670Z,1003.07
2022-11-03T12:08:16.616Z,1003.07
2022-11-03T12:09:16.673Z,1003.06
2022-11-03T12:10:16.589Z,1003.04
2022-11-03T12:11:16.626Z,1003.00